createdAt,value
2018-03-19T00:00:15.915Z,797.32
2018-03-19T00:01:15.918Z,797.32
2018-03-19T00:02:15.931Z,797.34
2018-03-19T00:03:15.929Z,797.35
2018-03-19T00:04:15.929Z,797.34
2018-03-19T00:05:15.933Z,797.33
2018-03-19T00:06:15.938Z,797.34
2018-03-19T00:07:15.940Z,797.32
2018-03-19T00:08:15.944Z,797.33
2018-03-19T00:09:15.950Z,797.31
2018-03-19T00:10:15.951Z,797.34
2018-03-19T00:11:15.955Z,797.31
2018-03-19T00:12:15.961Z,797.32
2018-03-19T00:13:15.962Z,797.32
2018-03-19T00:14:15.971Z,797.33
2018-03-19T00:15:15.968Z,797.37
2018-03-19T00:16:15.973Z,797.35
2018-03-19T00:17:15.978Z,797.33
2018-03-19T00:18:15.981Z,797.38
2018-03-19T00:19:15.981Z,797.37
2018-03-19T00:20:15.988Z,797.36
2018-03-19T00:21:15.997Z,797.33
2018-03-19T00:22:15.996Z,797.36
2018-03-19T00:23:16.007Z,797.32
2018-03-19T00:24:16.003Z,797.35
2018-03-19T00:25:16.011Z,797.34
2018-03-19T00:26:16.016Z,797.34
2018-03-19T00:27:16.018Z,797.36
2018-03-19T00:28:16.020Z,797.37
2018-03-19T00:29:16.026Z,797.34
2018-03-19T00:30:16.025Z,797.33
2018-03-19T00:31:16.033Z,797.36
2018-03-19T00:32:16.037Z,797.31
2018-03-19T00:33:16.034Z,797.35
2018-03-19T00:34:16.043Z,797.33
2018-03-19T00:35:16.043Z,797.30
2018-03-19T00:36:16.053Z,797.34
2018-03-19T00:37:16.057Z,797.32
2018-03-19T00:38:16.063Z,797.34
2018-03-19T00:39:16.070Z,797.34
2018-03-19T00:40:16.060Z,797.32
2018-03-19T00:41:16.065Z,797.37
2018-03-19T00:42:16.073Z,797.31
2018-03-19T00:43:16.077Z,797.32
2018-03-19T00:44:16.085Z,797.32
2018-03-19T00:45:16.085Z,797.30
2018-03-19T00:46:16.089Z,797.37
2018-03-19T00:47:16.087Z,797.32
2018-03-19T00:48:16.091Z,797.33
2018-03-19T00:49:16.094Z,797.36
2018-03-19T00:50:16.097Z,797.32
2018-03-19T00:51:16.106Z,797.33
2018-03-19T00:52:16.105Z,797.38
2018-03-19T00:53:16.114Z,797.36
2018-03-19T00:54:16.113Z,797.37
2018-03-19T00:55:16.119Z,797.33
2018-03-19T00:56:16.120Z,797.42
2018-03-19T00:57:16.128Z,797.40
2018-03-19T00:58:16.129Z,797.40
2018-03-19T00:59:16.139Z,797.38
2018-03-19T01:00:16.135Z,797.38
2018-03-19T01:01:16.145Z,797.36
2018-03-19T01:02:16.148Z,797.34
2018-03-19T01:03:16.146Z,797.37
2018-03-19T01:04:16.189Z,797.33
2018-03-19T01:05:16.156Z,797.35
2018-03-19T01:06:16.158Z,797.34
2018-03-19T01:07:16.166Z,797.33
2018-03-19T01:08:16.172Z,797.27
2018-03-19T01:09:16.171Z,797.32
2018-03-19T01:10:16.173Z,797.26
2018-03-19T01:11:16.182Z,797.30
2018-03-19T01:12:16.181Z,797.29
2018-03-19T01:13:16.190Z,797.28
2018-03-19T01:14:16.189Z,797.30
2018-03-19T01:15:16.196Z,797.30
2018-03-19T01:16:16.196Z,797.26
2018-03-19T01:17:16.210Z,797.29
2018-03-19T01:18:16.215Z,797.31
2018-03-19T01:19:16.207Z,797.30
2018-03-19T01:20:16.211Z,797.30
2018-03-19T01:21:16.215Z,797.32
2018-03-19T01:22:16.220Z,797.35
2018-03-19T01:23:16.224Z,797.33
2018-03-19T01:24:16.234Z,797.34
2018-03-19T01:25:16.234Z,797.35
2018-03-19T01:26:16.246Z,797.34
2018-03-19T01:27:16.239Z,797.29
2018-03-19T01:28:16.246Z,797.32
2018-03-19T01:29:16.248Z,797.34
2018-03-19T01:30:16.250Z,797.28
2018-03-19T01:31:16.256Z,797.28
2018-03-19T01:32:16.256Z,797.32
2018-03-19T01:33:16.267Z,797.35
2018-03-19T01:34:16.272Z,797.32
2018-03-19T01:35:16.267Z,797.36
2018-03-19T01:36:16.276Z,797.32
2018-03-19T01:37:16.282Z,797.31
2018-03-19T01:38:16.284Z,797.35
2018-03-19T01:39:16.289Z,797.31
2018-03-19T01:40:16.286Z,797.35
2018-03-19T01:41:16.295Z,797.35
2018-03-19T01:42:16.293Z,797.32
2018-03-19T01:43:16.296Z,797.35
2018-03-19T01:44:16.309Z,797.36
2018-03-19T01:45:16.309Z,797.32
2018-03-19T01:46:16.309Z,797.34
2018-03-19T01:47:16.316Z,797.32
2018-03-19T01:48:16.315Z,797.32
2018-03-19T01:49:16.325Z,797.37
2018-03-19T01:50:16.323Z,797.34
2018-03-19T01:51:16.333Z,797.36
2018-03-19T01:52:16.338Z,797.36
2018-03-19T01:53:16.333Z,797.34
2018-03-19T01:54:16.339Z,797.36
2018-03-19T01:55:16.347Z,797.36
2018-03-19T01:56:16.345Z,797.35
2018-03-19T01:57:16.354Z,797.34
2018-03-19T01:58:16.353Z,797.33
2018-03-19T01:59:16.363Z,797.31
2018-03-19T02:00:16.366Z,797.30
2018-03-19T02:01:16.364Z,797.32
2018-03-19T02:02:16.371Z,797.33
2018-03-19T02:03:16.372Z,797.34
2018-03-19T02:04:16.378Z,797.29
2018-03-19T02:05:16.389Z,797.31
2018-03-19T02:06:16.388Z,797.28
2018-03-19T02:07:16.391Z,797.28
2018-03-19T02:08:16.389Z,797.26
2018-03-19T02:09:16.392Z,797.25
2018-03-19T02:10:16.399Z,797.23
2018-03-19T02:11:16.399Z,797.28
2018-03-19T02:12:16.408Z,797.25
2018-03-19T02:13:16.405Z,797.26
2018-03-19T02:14:16.415Z,797.23
2018-03-19T02:15:16.413Z,797.28
2018-03-19T02:16:16.421Z,797.24
2018-03-19T02:17:16.425Z,797.28
2018-03-19T02:18:16.423Z,797.27
2018-03-19T02:19:16.425Z,797.29
2018-03-19T02:20:16.436Z,797.24
2018-03-19T02:21:16.440Z,797.27
2018-03-19T02:22:16.443Z,797.26
2018-03-19T02:23:16.449Z,797.28
2018-03-19T02:24:16.449Z,797.27
2018-03-19T02:25:16.446Z,797.27
2018-03-19T02:26:16.450Z,797.28
2018-03-19T02:27:16.454Z,797.32
2018-03-19T02:28:16.459Z,797.28
2018-03-19T02:29:16.463Z,797.30
2018-03-19T02:30:16.471Z,797.31
2018-03-19T02:31:16.478Z,797.30
2018-03-19T02:32:16.476Z,797.29
2018-03-19T02:33:16.497Z,797.29
2018-03-19T02:34:16.477Z,797.28
2018-03-19T02:35:16.486Z,797.30
2018-03-19T02:36:16.490Z,797.28
2018-03-19T02:37:16.494Z,797.26
2018-03-19T02:38:16.502Z,797.26
2018-03-19T02:39:16.500Z,797.28
2018-03-19T02:40:16.496Z,797.28
2018-03-19T02:41:16.503Z,797.27
2018-03-19T02:42:16.511Z,797.25
2018-03-19T02:43:16.515Z,797.31
2018-03-19T02:44:16.512Z,797.33
2018-03-19T02:45:16.520Z,797.29
2018-03-19T02:46:16.525Z,797.35
2018-03-19T02:47:16.527Z,797.33
2018-03-19T02:48:16.524Z,797.30
2018-03-19T02:49:16.534Z,797.34
2018-03-19T02:50:16.532Z,797.33
2018-03-19T02:51:16.550Z,797.34
2018-03-19T02:52:16.544Z,797.36
2018-03-19T02:53:16.542Z,797.32
2018-03-19T02:54:16.546Z,797.34
2018-03-19T02:55:16.555Z,797.34
2018-03-19T02:56:16.551Z,797.37
2018-03-19T02:57:16.555Z,797.33
2018-03-19T02:58:16.559Z,797.35
2018-03-19T02:59:16.567Z,797.33
2018-03-19T03:00:16.567Z,797.35
2018-03-19T03:01:16.573Z,797.34
2018-03-19T03:02:16.573Z,797.36
2018-03-19T03:03:16.577Z,797.32
2018-03-19T03:04:16.583Z,797.33
2018-03-19T03:05:16.589Z,797.37
2018-03-19T03:06:16.586Z,797.35
2018-03-19T03:07:16.593Z,797.36
2018-03-19T03:08:16.597Z,797.40
2018-03-19T03:09:16.595Z,797.38
2018-03-19T03:10:16.603Z,797.38
2018-03-19T03:11:16.599Z,797.45
2018-03-19T03:12:16.609Z,797.41
2018-03-19T03:13:16.643Z,797.41
2018-03-19T03:14:16.616Z,797.43
2018-03-19T03:15:16.620Z,797.40
2018-03-19T03:16:16.624Z,797.44
2018-03-19T03:17:16.622Z,797.44
2018-03-19T03:18:16.625Z,797.46
2018-03-19T03:19:16.635Z,797.44
2018-03-19T03:20:16.637Z,797.46
2018-03-19T03:21:16.642Z,797.47
2018-03-19T03:22:16.646Z,797.47
2018-03-19T03:23:16.641Z,797.48
2018-03-19T03:24:16.644Z,797.44
2018-03-19T03:25:16.654Z,797.48
2018-03-19T03:26:16.656Z,797.50
2018-03-19T03:27:16.660Z,797.52
2018-03-19T03:28:16.658Z,797.49
2018-03-19T03:29:16.666Z,797.50
2018-03-19T03:30:16.671Z,797.52
2018-03-19T03:31:16.675Z,797.48
2018-03-19T03:32:16.672Z,797.51
2018-03-19T03:33:16.675Z,797.52
2018-03-19T03:34:16.680Z,797.55
2018-03-19T03:35:16.681Z,797.57
2018-03-19T03:36:16.686Z,797.55
2018-03-19T03:37:16.694Z,797.59
2018-03-19T03:38:16.691Z,797.54
2018-03-19T03:39:16.696Z,797.57
2018-03-19T03:40:16.704Z,797.56
2018-03-19T03:41:16.703Z,797.52
2018-03-19T03:42:16.711Z,797.53
2018-03-19T03:43:16.710Z,797.53
2018-03-19T03:44:16.712Z,797.51
2018-03-19T03:45:16.721Z,797.54
2018-03-19T03:46:16.719Z,797.55
2018-03-19T03:47:16.723Z,797.57
2018-03-19T03:48:16.726Z,797.57
2018-03-19T03:49:16.738Z,797.54
2018-03-19T03:50:16.738Z,797.52
2018-03-19T03:51:16.741Z,797.52
2018-03-19T03:52:16.739Z,797.51
2018-03-19T03:53:16.748Z,797.53
2018-03-19T03:54:16.751Z,797.50
2018-03-19T03:55:16.754Z,797.52
2018-03-19T03:56:16.754Z,797.52
2018-03-19T03:57:16.756Z,797.52
2018-03-19T03:58:16.760Z,797.49
2018-03-19T03:59:16.768Z,797.52
2018-03-19T04:00:16.766Z,797.51
2018-03-19T04:01:16.770Z,797.53
2018-03-19T04:02:16.775Z,797.55
2018-03-19T04:03:16.779Z,797.58
2018-03-19T04:04:16.781Z,797.55
2018-03-19T04:05:16.785Z,797.57
2018-03-19T04:06:16.785Z,797.59
2018-03-19T04:07:16.793Z,797.56
2018-03-19T04:08:16.796Z,797.61
2018-03-19T04:09:16.802Z,797.65
2018-03-19T04:10:16.800Z,797.59
2018-03-19T04:11:16.808Z,797.57
2018-03-19T04:12:16.806Z,797.60
2018-03-19T04:13:16.809Z,797.62
2018-03-19T04:14:16.813Z,797.61
2018-03-19T04:15:16.823Z,797.62
2018-03-19T04:16:16.822Z,797.60
2018-03-19T04:17:16.822Z,797.62
2018-03-19T04:18:16.834Z,797.58
2018-03-19T04:19:16.828Z,797.63
2018-03-19T04:20:16.842Z,797.61
2018-03-19T04:21:16.852Z,797.58
2018-03-19T04:22:16.851Z,797.64
2018-03-19T04:23:16.843Z,797.65
2018-03-19T04:24:16.868Z,797.60
2018-03-19T04:25:16.847Z,797.60
2018-03-19T04:26:16.857Z,797.62
2018-03-19T04:27:16.859Z,797.58
2018-03-19T04:28:16.858Z,797.60
2018-03-19T04:29:16.866Z,797.59
2018-03-19T04:30:16.871Z,797.58
2018-03-19T04:31:16.872Z,797.60
2018-03-19T04:32:16.875Z,797.61
2018-03-19T04:33:16.873Z,797.57
2018-03-19T04:34:16.891Z,797.58
2018-03-19T04:35:16.879Z,797.56
2018-03-19T04:36:16.890Z,797.60
2018-03-19T04:37:16.886Z,797.58
2018-03-19T04:38:16.889Z,797.62
2018-03-19T04:39:16.892Z,797.60
2018-03-19T04:40:16.899Z,797.60
2018-03-19T04:41:16.899Z,797.55
2018-03-19T04:42:16.901Z,797.55
2018-03-19T04:43:16.908Z,797.59
2018-03-19T04:44:16.908Z,797.60
2018-03-19T04:45:16.916Z,797.59
2018-03-19T04:46:16.919Z,797.54
2018-03-19T04:47:16.921Z,797.58
2018-03-19T04:48:16.921Z,797.60
2018-03-19T04:49:16.925Z,797.56
2018-03-19T04:50:16.931Z,797.59
2018-03-19T04:51:16.935Z,797.61
2018-03-19T04:52:16.937Z,797.62
2018-03-19T04:53:16.942Z,797.55
2018-03-19T04:54:16.939Z,797.59
2018-03-19T04:55:16.948Z,797.61
2018-03-19T04:56:16.951Z,797.57
2018-03-19T04:57:16.955Z,797.61
2018-03-19T04:58:16.958Z,797.60
2018-03-19T04:59:16.962Z,797.61
2018-03-19T05:00:16.964Z,797.62
2018-03-19T05:01:16.962Z,797.64
2018-03-19T05:02:16.969Z,797.62
2018-03-19T05:03:16.966Z,797.65
2018-03-19T05:04:16.969Z,797.61
2018-03-19T05:05:16.973Z,797.62
2018-03-19T05:06:16.982Z,797.62
2018-03-19T05:07:16.984Z,797.65
2018-03-19T05:08:16.987Z,797.64
2018-03-19T05:09:16.986Z,797.66
2018-03-19T05:10:16.994Z,797.64
2018-03-19T05:11:17.040Z,797.68
2018-03-19T05:12:16.997Z,797.66
2018-03-19T05:13:17.004Z,797.66
2018-03-19T05:14:17.006Z,797.65
2018-03-19T05:15:17.008Z,797.62
2018-03-19T05:16:17.008Z,797.66
2018-03-19T05:17:17.010Z,797.65
2018-03-19T05:18:17.014Z,797.55
2018-03-19T05:19:17.022Z,797.57
2018-03-19T05:20:17.018Z,797.63
2018-03-19T05:21:17.022Z,797.55
2018-03-19T05:22:17.032Z,797.61
2018-03-19T05:23:17.027Z,797.63
2018-03-19T05:24:17.031Z,797.63
2018-03-19T05:25:17.034Z,797.64
2018-03-19T05:26:17.042Z,797.59
2018-03-19T05:27:17.038Z,797.57
2018-03-19T05:28:17.048Z,797.56
2018-03-19T05:29:17.050Z,797.57
2018-03-19T05:30:17.054Z,797.56
2018-03-19T05:31:17.050Z,797.59
2018-03-19T05:32:17.060Z,797.62
2018-03-19T05:33:17.056Z,797.62
2018-03-19T05:34:17.060Z,797.62
2018-03-19T05:35:17.068Z,797.64
2018-03-19T05:36:17.071Z,797.64
2018-03-19T05:37:17.074Z,797.62
2018-03-19T05:38:17.078Z,797.63
2018-03-19T05:39:17.074Z,797.65
2018-03-19T05:40:17.077Z,797.65
2018-03-19T05:41:17.080Z,797.61
2018-03-19T05:42:17.085Z,797.64
2018-03-19T05:43:17.092Z,797.64
2018-03-19T05:44:17.094Z,797.68
2018-03-19T05:45:17.094Z,797.62
2018-03-19T05:46:17.097Z,797.64
2018-03-19T05:47:17.098Z,797.64
2018-03-19T05:48:17.102Z,797.65
2018-03-19T05:49:17.105Z,797.65
2018-03-19T05:50:17.114Z,797.60
2018-03-19T05:51:17.118Z,797.64
2018-03-19T05:52:17.115Z,797.67
2018-03-19T05:53:17.129Z,797.67
2018-03-19T05:54:17.127Z,797.66
2018-03-19T05:55:17.129Z,797.69
2018-03-19T05:56:17.132Z,797.67
2018-03-19T05:57:17.138Z,797.71
2018-03-19T05:58:17.139Z,797.71
2018-03-19T05:59:17.137Z,797.68
2018-03-19T06:00:17.145Z,797.67
2018-03-19T06:01:17.150Z,797.70
2018-03-19T06:02:17.148Z,797.70
2018-03-19T06:03:17.150Z,797.71
2018-03-19T06:04:17.153Z,797.75
2018-03-19T06:05:17.163Z,797.75
2018-03-19T06:06:17.160Z,797.73
2018-03-19T06:07:17.164Z,797.75
2018-03-19T06:08:17.174Z,797.79
2018-03-19T06:09:17.175Z,797.80
2018-03-19T06:10:17.182Z,797.78
2018-03-19T06:11:17.177Z,797.78
2018-03-19T06:12:17.185Z,797.80
2018-03-19T06:13:17.184Z,797.81
2018-03-19T06:14:17.187Z,797.80
2018-03-19T06:15:17.196Z,797.81
2018-03-19T06:16:17.194Z,797.83
2018-03-19T06:17:17.206Z,797.84
2018-03-19T06:18:17.203Z,797.86
2018-03-19T06:19:17.204Z,797.85
2018-03-19T06:20:17.214Z,797.80
2018-03-19T06:21:17.217Z,797.79
2018-03-19T06:22:17.220Z,797.82
2018-03-19T06:23:17.218Z,797.80
2018-03-19T06:24:17.220Z,797.78
2018-03-19T06:25:17.223Z,797.77
2018-03-19T06:26:17.228Z,797.78
2018-03-19T06:27:17.233Z,797.80
2018-03-19T06:28:17.240Z,797.83
2018-03-19T06:29:17.243Z,797.83
2018-03-19T06:30:17.243Z,797.82
2018-03-19T06:31:17.249Z,797.81
2018-03-19T06:32:17.249Z,797.79
2018-03-19T06:33:17.250Z,797.82
2018-03-19T06:34:17.263Z,797.81
2018-03-19T06:35:17.258Z,797.78
2018-03-19T06:36:17.268Z,797.77
2018-03-19T06:37:17.271Z,797.78
2018-03-19T06:38:17.271Z,797.76
2018-03-19T06:39:17.272Z,797.80
2018-03-19T06:40:17.304Z,797.77
2018-03-19T06:41:17.279Z,797.80
2018-03-19T06:42:17.285Z,797.80
2018-03-19T06:43:17.286Z,797.82
2018-03-19T06:44:17.289Z,797.83
2018-03-19T06:45:17.296Z,797.83
2018-03-19T06:46:17.297Z,797.83
2018-03-19T06:47:17.298Z,797.86
2018-03-19T06:48:17.303Z,797.82
2018-03-19T06:49:17.306Z,797.83
2018-03-19T06:50:17.315Z,797.86
2018-03-19T06:51:17.314Z,797.85
2018-03-19T06:52:17.322Z,797.87
2018-03-19T06:53:17.327Z,797.87
2018-03-19T06:54:17.326Z,797.86
2018-03-19T06:55:17.329Z,797.90
2018-03-19T06:56:17.338Z,797.89
2018-03-19T06:57:17.336Z,797.84
2018-03-19T06:58:17.348Z,797.91
2018-03-19T06:59:17.349Z,797.91
2018-03-19T07:00:17.350Z,797.89
2018-03-19T07:01:17.362Z,797.91
2018-03-19T07:02:17.356Z,797.87
2018-03-19T07:03:17.358Z,797.88
2018-03-19T07:04:17.362Z,797.90
2018-03-19T07:05:17.372Z,797.87
2018-03-19T07:06:17.374Z,797.88
2018-03-19T07:07:17.373Z,797.88
2018-03-19T07:08:17.384Z,797.89
2018-03-19T07:09:17.382Z,797.89
2018-03-19T07:10:17.393Z,797.92
2018-03-19T07:11:17.395Z,797.93
2018-03-19T07:12:17.402Z,797.91
2018-03-19T07:13:17.403Z,797.93
2018-03-19T07:14:17.403Z,797.94
2018-03-19T07:15:17.410Z,797.97
2018-03-19T07:16:17.422Z,797.98
2018-03-19T07:17:17.430Z,797.99
2018-03-19T07:18:17.418Z,798.01
2018-03-19T07:19:17.426Z,798.03
2018-03-19T07:20:17.427Z,798.02
2018-03-19T07:21:17.433Z,797.99
2018-03-19T07:22:17.442Z,798.03
2018-03-19T07:23:17.443Z,798.04
2018-03-19T07:24:17.442Z,798.04
2018-03-19T07:25:17.447Z,798.05
2018-03-19T07:26:17.456Z,798.08
2018-03-19T07:27:17.453Z,798.03
2018-03-19T07:28:17.457Z,798.02
2018-03-19T07:29:17.467Z,798.03
2018-03-19T07:30:17.466Z,798.00
2018-03-19T07:31:17.470Z,798.03
2018-03-19T07:32:17.478Z,798.03
2018-03-19T07:33:17.483Z,798.02
2018-03-19T07:34:17.486Z,798.07
2018-03-19T07:35:17.485Z,798.09
2018-03-19T07:36:17.490Z,798.10
2018-03-19T07:37:17.500Z,798.08
2018-03-19T07:38:17.510Z,798.13
2018-03-19T07:39:17.507Z,798.13
2018-03-19T07:40:17.507Z,798.11
2018-03-19T07:41:17.512Z,798.08
2018-03-19T07:42:17.516Z,798.09
2018-03-19T07:43:17.525Z,798.12
2018-03-19T07:44:17.531Z,798.11
2018-03-19T07:45:17.528Z,798.11
2018-03-19T07:46:17.533Z,798.09
2018-03-19T07:47:17.537Z,798.07
2018-03-19T07:48:17.542Z,798.11
2018-03-19T07:49:17.554Z,798.10
2018-03-19T07:50:17.551Z,798.12
2018-03-19T07:51:17.554Z,798.10
2018-03-19T07:52:17.565Z,798.13
2018-03-19T07:53:17.574Z,798.08
2018-03-19T07:54:17.570Z,798.12
2018-03-19T07:55:17.581Z,798.11
2018-03-19T07:56:17.579Z,798.10
2018-03-19T07:57:17.591Z,798.10
2018-03-19T07:58:17.594Z,798.11
2018-03-19T07:59:17.597Z,798.10
2018-03-19T08:00:17.602Z,798.11
2018-03-19T08:01:17.609Z,798.09
2018-03-19T08:02:17.608Z,798.11
2018-03-19T08:03:17.612Z,798.11
2018-03-19T08:04:17.617Z,798.16
2018-03-19T08:05:17.622Z,798.17
2018-03-19T08:06:17.628Z,798.14
2018-03-19T08:07:17.638Z,798.13
2018-03-19T08:08:17.642Z,798.17
2018-03-19T08:09:17.643Z,798.13
2018-03-19T08:10:17.647Z,798.17
2018-03-19T08:11:17.654Z,798.17
2018-03-19T08:12:17.723Z,798.17
2018-03-19T08:13:17.667Z,798.16
2018-03-19T08:14:17.678Z,798.17
2018-03-19T08:15:17.671Z,798.15
2018-03-19T08:16:17.681Z,798.16
2018-03-19T08:17:17.682Z,798.17
2018-03-19T08:18:17.694Z,798.17
2018-03-19T08:19:17.700Z,798.16
2018-03-19T08:20:17.702Z,798.18
2018-03-19T08:21:17.709Z,798.22
2018-03-19T08:22:17.709Z,798.18
2018-03-19T08:23:17.716Z,798.16
2018-03-19T08:24:17.723Z,798.15
2018-03-19T08:25:17.729Z,798.20
2018-03-19T08:26:17.736Z,798.15
2018-03-19T08:27:17.738Z,798.19
2018-03-19T08:28:17.744Z,798.15
2018-03-19T08:29:17.744Z,798.17
2018-03-19T08:30:17.749Z,798.17
2018-03-19T08:31:17.755Z,798.13
2018-03-19T08:32:17.757Z,798.14
2018-03-19T08:33:17.770Z,798.19
2018-03-19T08:34:17.771Z,798.17
2018-03-19T08:35:17.775Z,798.16
2018-03-19T08:36:17.784Z,798.19
2018-03-19T08:37:17.782Z,798.15
2018-03-19T08:38:17.794Z,798.16
2018-03-19T08:39:17.793Z,798.16
2018-03-19T08:40:17.801Z,798.16
2018-03-19T08:41:17.808Z,798.16
2018-03-19T08:42:17.855Z,798.18
2018-03-19T08:43:17.810Z,798.21
2018-03-19T08:44:17.820Z,798.24
2018-03-19T08:45:17.827Z,798.24
2018-03-19T08:46:17.832Z,798.24
2018-03-19T08:47:17.835Z,798.25
2018-03-19T08:48:17.835Z,798.27
2018-03-19T08:49:17.840Z,798.23
2018-03-19T08:50:17.847Z,798.24
2018-03-19T08:51:17.851Z,798.29
2018-03-19T08:52:17.855Z,798.26
2018-03-19T08:53:17.865Z,798.22
2018-03-19T08:54:17.871Z,798.21
2018-03-19T08:55:17.874Z,798.21
2018-03-19T08:56:17.879Z,798.24
2018-03-19T08:57:17.885Z,798.23
2018-03-19T08:58:17.888Z,798.28
2018-03-19T08:59:17.892Z,798.26
2018-03-19T09:00:17.899Z,798.33
2018-03-19T09:01:17.899Z,798.33
2018-03-19T09:02:17.909Z,798.33
2018-03-19T09:03:17.907Z,798.33
2018-03-19T09:04:17.977Z,798.32
2018-03-19T09:05:17.919Z,798.29
2018-03-19T09:06:17.930Z,798.31
2018-03-19T09:07:17.985Z,798.31
2018-03-19T09:08:17.938Z,798.32
2018-03-19T09:09:17.939Z,798.29
2018-03-19T09:10:17.944Z,798.27
2018-03-19T09:11:17.949Z,798.27
2018-03-19T09:12:17.958Z,798.25
2018-03-19T09:13:17.964Z,798.29
2018-03-19T09:14:17.970Z,798.27
2018-03-19T09:15:17.973Z,798.28
2018-03-19T09:16:17.975Z,798.31
2018-03-19T09:17:17.980Z,798.31
2018-03-19T09:18:17.992Z,798.32
2018-03-19T09:19:17.990Z,798.28
2018-03-19T09:20:18.002Z,798.35
2018-03-19T09:21:18.003Z,798.33
2018-03-19T09:22:18.015Z,798.33
2018-03-19T09:23:18.014Z,798.37
2018-03-19T09:24:18.027Z,798.33
2018-03-19T09:25:18.027Z,798.31
2018-03-19T09:26:18.032Z,798.31
2018-03-19T09:27:18.045Z,798.32
2018-03-19T09:28:18.048Z,798.31
2018-03-19T09:29:18.054Z,798.31
2018-03-19T09:30:18.062Z,798.33
2018-03-19T09:31:18.065Z,798.30
2018-03-19T09:32:18.078Z,798.36
2018-03-19T09:33:18.072Z,798.37
2018-03-19T09:34:18.083Z,798.37
2018-03-19T09:35:18.126Z,798.41
2018-03-19T09:36:18.098Z,798.39
2018-03-19T09:37:18.096Z,798.38
2018-03-19T09:38:18.104Z,798.43
2018-03-19T09:39:18.115Z,798.43
2018-03-19T09:40:18.126Z,798.43
2018-03-19T09:41:18.122Z,798.43
2018-03-19T09:42:18.133Z,798.43
2018-03-19T09:43:18.134Z,798.39
2018-03-19T09:44:18.152Z,798.40
2018-03-19T09:45:18.148Z,798.43
2018-03-19T09:46:18.154Z,798.43
2018-03-19T09:47:18.165Z,798.42
2018-03-19T09:48:18.220Z,798.44
2018-03-19T09:49:18.179Z,798.47
2018-03-19T09:50:18.183Z,798.43
2018-03-19T09:51:18.193Z,798.44
2018-03-19T09:52:18.193Z,798.42
2018-03-19T09:53:18.202Z,798.43
2018-03-19T09:54:18.215Z,798.43
2018-03-19T09:55:18.221Z,798.46
2018-03-19T09:56:18.221Z,798.47
2018-03-19T09:57:18.234Z,798.48
2018-03-19T09:58:18.236Z,798.49
2018-03-19T09:59:18.244Z,798.42
2018-03-19T10:00:18.255Z,798.46
2018-03-19T10:01:18.264Z,798.47
2018-03-19T10:02:18.265Z,798.44
2018-03-19T10:03:18.271Z,798.42
2018-03-19T10:04:18.284Z,798.46
2018-03-19T10:05:18.288Z,798.42
2018-03-19T10:06:18.296Z,798.47
2018-03-19T10:07:18.303Z,798.44
2018-03-19T10:08:18.311Z,798.47
2018-03-19T10:09:18.323Z,798.47
2018-03-19T10:10:18.332Z,798.45
2018-03-19T10:11:18.339Z,798.43
2018-03-19T10:12:18.388Z,798.43
2018-03-19T10:13:18.417Z,798.45
2018-03-19T10:14:18.358Z,798.47
2018-03-19T10:15:18.370Z,798.44
2018-03-19T10:16:18.436Z,798.44
2018-03-19T10:17:18.382Z,798.41
2018-03-19T10:18:18.395Z,798.44
2018-03-19T10:19:18.397Z,798.45
2018-03-19T10:20:18.413Z,798.45
2018-03-19T10:21:18.421Z,798.39
2018-03-19T10:22:18.428Z,798.38
2018-03-19T10:23:18.428Z,798.41
2018-03-19T10:24:18.442Z,798.40
2018-03-19T10:25:18.456Z,798.42
2018-03-19T10:26:18.459Z,798.44
2018-03-19T10:27:18.470Z,798.43
2018-03-19T10:28:18.475Z,798.47
2018-03-19T10:29:18.488Z,798.47
2018-03-19T10:30:18.487Z,798.53
2018-03-19T10:31:18.498Z,798.46
2018-03-19T10:32:18.504Z,798.48
2018-03-19T10:33:18.513Z,798.47
2018-03-19T10:34:18.520Z,798.48
2018-03-19T10:35:18.535Z,798.51
2018-03-19T10:36:18.537Z,798.47
2018-03-19T10:37:18.547Z,798.49
2018-03-19T10:38:18.564Z,798.51
2018-03-19T10:39:18.570Z,798.53
2018-03-19T10:40:18.580Z,798.50
2018-03-19T10:41:18.583Z,798.50
2018-03-19T10:42:18.597Z,798.57
2018-03-19T10:43:18.603Z,798.56
2018-03-19T10:44:18.611Z,798.49
2018-03-19T10:45:18.621Z,798.50
2018-03-19T10:46:18.629Z,798.50
2018-03-19T10:47:18.640Z,798.49
2018-03-19T10:48:18.649Z,798.44
2018-03-19T10:49:18.666Z,798.49
2018-03-19T10:50:18.672Z,798.45
2018-03-19T10:51:18.675Z,798.46
2018-03-19T10:52:18.690Z,798.47
2018-03-19T10:53:18.699Z,798.48
2018-03-19T10:54:18.708Z,798.49
2018-03-19T10:55:18.712Z,798.50
2018-03-19T10:56:18.725Z,798.48
2018-03-19T10:57:18.731Z,798.48
2018-03-19T10:58:18.746Z,798.49
2018-03-19T10:59:18.747Z,798.50
2018-03-19T11:00:18.761Z,798.51
2018-03-19T11:01:18.789Z,798.53
2018-03-19T11:02:18.783Z,798.49
2018-03-19T11:03:18.792Z,798.50
2018-03-19T11:04:18.795Z,798.54
2018-03-19T11:05:18.809Z,798.54
2018-03-19T11:06:18.813Z,798.54
2018-03-19T11:07:18.831Z,798.49
2018-03-19T11:08:18.837Z,798.50
2018-03-19T11:09:18.843Z,798.49
2018-03-19T11:10:18.851Z,798.48
2018-03-19T11:11:18.865Z,798.45
2018-03-19T11:12:18.937Z,798.45
2018-03-19T11:13:18.883Z,798.45
2018-03-19T11:14:18.899Z,798.41
2018-03-19T11:15:18.907Z,798.49
2018-03-19T11:16:18.915Z,798.39
2018-03-19T11:17:18.920Z,798.45
2018-03-19T11:18:18.936Z,798.49
2018-03-19T11:19:18.939Z,798.46
2018-03-19T11:20:18.948Z,798.43
2018-03-19T11:21:18.966Z,798.46
2018-03-19T11:22:18.975Z,798.47
2018-03-19T11:23:18.983Z,798.50
2018-03-19T11:24:18.996Z,798.49
2018-03-19T11:25:19.003Z,798.49
2018-03-19T11:26:19.013Z,798.51
2018-03-19T11:27:19.023Z,798.52
2018-03-19T11:28:19.032Z,798.47
2018-03-19T11:29:19.037Z,798.46
2018-03-19T11:30:19.047Z,798.44
2018-03-19T11:31:19.058Z,798.44
2018-03-19T11:32:19.071Z,798.42
2018-03-19T11:33:19.076Z,798.42
2018-03-19T11:34:19.086Z,798.46
2018-03-19T11:35:19.099Z,798.50
2018-03-19T11:36:19.104Z,798.48
2018-03-19T11:37:19.118Z,798.50
2018-03-19T11:38:19.127Z,798.47
2018-03-19T11:39:19.139Z,798.45
2018-03-19T11:40:19.142Z,798.45
2018-03-19T11:41:19.156Z,798.45
2018-03-19T11:42:19.160Z,798.43
2018-03-19T11:43:19.177Z,798.44
2018-03-19T11:44:19.180Z,798.42
2018-03-19T11:45:19.189Z,798.44
2018-03-19T11:46:19.197Z,798.43
2018-03-19T11:47:19.222Z,798.39
2018-03-19T11:48:19.221Z,798.41
2018-03-19T11:49:19.225Z,798.48
2018-03-19T11:50:19.240Z,798.47
2018-03-19T11:51:19.242Z,798.44
2018-03-19T11:52:19.256Z,798.49
2018-03-19T11:53:19.260Z,798.42
2018-03-19T11:54:19.282Z,798.51
2018-03-19T11:55:19.282Z,798.48
2018-03-19T11:56:19.287Z,798.44
2018-03-19T11:57:19.297Z,798.47
2018-03-19T11:58:19.309Z,798.41
2018-03-19T11:59:19.322Z,798.40
2018-03-19T12:00:19.320Z,798.44
2018-03-19T12:01:19.338Z,798.41
2018-03-19T12:02:19.337Z,798.39
2018-03-19T12:03:19.344Z,798.40
2018-03-19T12:04:19.355Z,798.41
2018-03-19T12:05:19.362Z,798.48
2018-03-19T12:06:19.376Z,798.48
2018-03-19T12:07:19.378Z,798.45
2018-03-19T12:08:19.387Z,798.45
2018-03-19T12:09:19.394Z,798.46
2018-03-19T12:10:19.411Z,798.46
2018-03-19T12:11:19.420Z,798.50
2018-03-19T12:12:19.490Z,798.47
2018-03-19T12:13:19.437Z,798.44
2018-03-19T12:14:19.439Z,798.40
2018-03-19T12:15:19.446Z,798.38
2018-03-19T12:16:19.454Z,798.41
2018-03-19T12:17:19.471Z,798.40
2018-03-19T12:18:19.473Z,798.36
2018-03-19T12:19:19.486Z,798.34
2018-03-19T12:20:19.499Z,798.42
2018-03-19T12:21:19.496Z,798.35
2018-03-19T12:22:19.505Z,798.37
2018-03-19T12:23:19.519Z,798.36
2018-03-19T12:24:19.524Z,798.37
2018-03-19T12:25:19.532Z,798.39
2018-03-19T12:26:19.544Z,798.32
2018-03-19T12:27:19.545Z,798.37
2018-03-19T12:28:19.603Z,798.36